KPHL/PHL METAR and TAF weather

Enter ICAO airport designator
Station Type Date Time Source
KPHL METAR 2020/11/28 18:54 UTC NOAA

KPHL 281854Z 29009KT 10SM FEW047 SCT060 13/02 A2999 RMK AO2 SLP156 T01330017


Station Type Date Time Source
KPHL Decoded METAR 2020/11/28 18:54 UTC NOAA

PHILADELPHIA INTERNATIONAL AIRPT, PA, United States (KPHL) 39-52N 075-14W 18M
Nov 28, 2020 - 01:54 PM EST / 2020.11.28 1854 UTC
Wind: from the WNW (290 degrees) at 10 MPH (9 KT):0
Visibility: 10 mile(s):0
Sky conditions: partly cloudy
Temperature: 55.9 F (13.3 C)
Dew Point: 35.1 F (1.7 C)
Relative Humidity: 45%
Pressure (altimeter): 29.99 in. Hg (1015 hPa)
ob: KPHL 281854Z 29009KT 10SM FEW047 SCT060 13/02 A2999 RMK AO2 SLP156 T01330017
cycle: 19

Station Type Date Time Source
KPHL TAF 2020/11/28 18:26 UTC NOAA

TAF KPHL 281720Z 2818/2924 29015G20KT P6SM BKN060
FM282300 30008KT P6SM FEW250
FM290600 VRB04KT P6SM FEW250
FM291400 25006KT P6SM SKC
FM292100 20006KT P6SM FEW250

Example: see airport list